• Join FlightAware (Why Join?)
  • Login
  • US Flag 
10:34AM EST


 

Airport Tracker/Info


-or-


 

Live Flight TrackerFlight Track Log ✈ DLH1804 ✈ 23-Apr-2013 ✈ EDDM / MUC - LEMD / MAD

Flight Track Log - Related Links

Times and Time Zones

All times are in EDT time to prevent confusion due to time zone crossing. See the DLH1804 flight status page for this flight to view local times or setup timezone preferences in your user account.

Time Position Orientation Groundspeed Altitude Reporting Facility
EDT Latitude Longitude Course Direction KTS MPH feet Rate Location/Type
09:13AM 47.9721 10.8113 240° Southwest  Level Estimated
09:14AM 47.9077 10.6502 239° Southwest  Level Estimated
09:15AM 47.8431 10.4895 239° Southwest  Level Estimated
09:16AM 47.7782 10.3293 239° Southwest  Level Estimated
09:17AM 47.7131 10.1694 239° Southwest  Level Estimated
09:18AM 47.6478 10.0100 239° Southwest  Level Estimated
09:19AM 47.5823 9.8509 239° Southwest  Level Estimated
09:20AM 47.5166 9.6922 239° Southwest  Level Estimated
09:21AM 47.4506 9.5340 238° Southwest  Level Estimated
09:22AM 47.3844 9.3761 238° Southwest  Level Estimated
09:23AM 47.3180 9.2186 238° Southwest  Level Estimated
09:24AM 47.2514 9.0616 238° Southwest  Level Estimated
09:25AM 47.1846 8.9049 238° Southwest  Level Estimated
09:26AM 47.1176 8.7486 238° Southwest  Level Estimated
09:27AM 47.0503 8.5927 238° Southwest  Level Estimated
09:28AM 46.9828 8.4372 238° Southwest  Level Estimated
09:29AM 46.9152 8.2821 237° Southwest  Level Estimated
09:30AM 46.8473 8.1274 237° Southwest  Level Estimated
09:31AM 46.7792 7.9730 237° Southwest  Level Estimated
09:32AM 46.7109 7.8191 237° Southwest  Level Estimated
09:33AM 46.6424 7.6656 237° Southwest  Level Estimated
09:34AM 46.5737 7.5124 237° Southwest  Level Estimated
09:35AM 46.5048 7.3596 237° Southwest  Level Estimated
09:36AM 46.4357 7.2073 237° Southwest  Level Estimated
09:37AM 46.3664 7.0553 237° Southwest  Level Estimated
09:38AM 46.2969 6.9037 236° Southwest  Level Estimated
09:39AM 46.2272 6.7524 236° Southwest  Level Estimated
09:40AM 46.1573 6.6016 236° Southwest  Level Estimated
09:41AM 46.0872 6.4511 236° Southwest  Level Estimated
09:42AM 46.0168 6.3011 236° Southwest  Level Estimated
09:43AM 45.9463 6.1514 236° Southwest  Level Estimated
09:44AM 45.8756 6.0021 236° Southwest  Level Estimated
09:45AM 45.8047 5.8531 236° Southwest  Level Estimated
09:46AM 45.7337 5.7046 236° Southwest  Level Estimated
09:47AM 45.6624 5.5564 235° Southwest  Level Estimated
09:48AM 45.5909 5.4086 235° Southwest  Level Estimated
09:49AM 45.5193 5.2612 235° Southwest  Level Estimated
09:50AM 45.4474 5.1142 235° Southwest  Level Estimated
09:51AM 45.3754 4.9675 235° Southwest  Level Estimated
09:52AM 45.3032 4.8212 235° Southwest  Level Estimated
09:53AM 45.2308 4.6753 235° Southwest  Level Estimated
09:54AM 45.1582 4.5297 235° Southwest  Level Estimated
09:55AM 45.0854 4.3845 235° Southwest  Level Estimated
09:56AM 45.0124 4.2397 235° Southwest  Level Estimated
09:57AM 44.9393 4.0953 234° Southwest  Level Estimated
09:58AM 44.8660 3.9512 234° Southwest  Level Estimated
09:59AM 44.7924 3.8075 234° Southwest  Level Estimated
10:00AM 44.7188 3.6642 234° Southwest  Level Estimated
10:01AM 44.6449 3.5212 234° Southwest  Level Estimated
10:02AM 44.5709 3.3786 234° Southwest  Level Estimated
10:03AM 44.4966 3.2363 234° Southwest  Level Estimated
10:04AM 44.4222 3.0944 234° Southwest  Level Estimated
10:05AM 44.3477 2.9529 234° Southwest  Level Estimated
10:06AM 44.2729 2.8117 234° Southwest  Level Estimated
10:07AM 44.1980 2.6709 233° Southwest  Level Estimated
10:08AM 44.1229 2.5305 233° Southwest  Level Estimated
10:09AM 44.0476 2.3904 233° Southwest  Level Estimated
10:10AM 43.9722 2.2506 233° Southwest  Level Estimated
10:11AM 43.8966 2.1113 233° Southwest  Level Estimated
10:12AM 43.8209 1.9722 233° Southwest  Level Estimated
10:13AM 43.7449 1.8336 233° Southwest  Level Estimated
10:14AM 43.6688 1.6953 233° Southwest  Level Estimated
10:15AM 43.5925 1.5573 233° Southwest  Level Estimated
10:16AM 43.5161 1.4197 233° Southwest  Level Estimated
10:17AM 43.4395 1.2824 232° Southwest  Level Estimated
10:18AM 43.3627 1.1455 232° Southwest  Level Estimated
10:19AM 43.2858 1.0089 232° Southwest  Level Estimated
10:20AM 43.2087 0.8727 232° Southwest  Level Estimated
10:21AM 43.1315 0.7368 232° Southwest  Level Estimated
10:22AM 43.0540 0.6012 232° Southwest  Level Estimated
10:23AM 42.9765 0.4660 232° Southwest  Level Estimated
10:24AM 42.8987 0.3311 232° Southwest  Level Estimated
10:25AM 42.8209 0.1966 232° Southwest  Level Estimated
10:26AM 42.7428 0.0624 232° Southwest  Level Estimated
10:27AM 42.6646 -0.0714 232° Southwest  Level Estimated
10:28AM 42.5862 -0.2049 231° Southwest  Level Estimated
10:29AM 42.5077 -0.3381 231° Southwest  Level Estimated
10:30AM 42.4291 -0.4709 231° Southwest  Level Estimated
10:31AM 42.3502 -0.6034 231° Southwest  Level Estimated
10:32AM 42.2713 -0.7356 231° Southwest  Level Estimated
10:33AM 42.1921 -0.8674 231° Southwest  Level Estimated
10:34AM 42.1129 -0.9990 231° Southwest  Level Estimated
10:35AM 42.0334 -1.1301 231° Southwest  Level Estimated
10:36AM 41.9539 -1.2610 231° Southwest  Level Estimated
10:37AM 41.8741 -1.3915 231° Southwest  Level Estimated
10:38AM 41.7943 -1.5217 231° Southwest  Level Estimated
10:39AM 41.7142 -1.6516 230° Southwest  Level Estimated
10:40AM 41.6341 -1.7812 230° Southwest  Level Estimated
10:41AM 41.5538 -1.9104 230° Southwest  Level Estimated
10:42AM 41.4733 -2.0393 230° Southwest  Level Estimated
10:43AM 41.3927 -2.1679 230° Southwest  Level Estimated
10:44AM 41.3120 -2.2962 230° Southwest  Level Estimated
10:45AM 41.2311 -2.4241 230° Southwest  Level Estimated
10:46AM 41.1501 -2.5518 230° Southwest  Level Estimated
10:47AM 41.0689 -2.6791 230° Southwest  Level Estimated
10:48AM 40.9876 -2.8061 230° Southwest  Level Estimated
10:49AM 40.9062 -2.9328 230° Southwest  Level Estimated
10:50AM 40.8246 -3.0592 230° Southwest  Level Estimated
10:51AM 40.7429 -3.1853 229° Southwest  Level Estimated
10:52AM 40.6610 -3.3110 229° Southwest  Level Estimated
10:53AM 40.5791 -3.4365 229° Southwest  Level Estimated
10:54AM 40.4969 -3.5616 229° Southwest  Level Estimated
10:55AM 40.4936 -3.5668 229° Southwest  Level Estimated
10:56AM 40.4936 -3.5668 217° Southwest  Level Estimated
10:57AM 40.4936 -3.5668 217° Southwest  Level Estimated
10:58AM 40.4936 -3.5668 217° Southwest  Level Estimated
10:59AM 40.4936 -3.5668 217° Southwest  Level Estimated
11:00AM 40.4936 -3.5668 217° Southwest  Level Estimated
11:01AM 40.4936 -3.5668 217° Southwest  Level Estimated
11:02AM 40.4936 -3.5668 217° Southwest  Level Estimated
11:03AM 40.4936 -3.5668 217° Southwest  Level Estimated
11:04AM 40.4936 -3.5668 217° Southwest  Level Estimated
11:05AM 40.4936 -3.5668 217° Southwest  Level Estimated
11:06AM 40.4936 -3.5668 217° Southwest  Level Estimated
11:07AM 40.4936 -3.5668 217° Southwest  Level Estimated
11:08AM 40.4936 -3.5668 217° Southwest  Level Estimated